sensor_id;sensor_type;location;lat;lon;timestamp;P1;durP1;ratioP1;P2;durP2;ratioP2
19599;SDS011;9947;57.722;12.012;2023-07-31T00:02:13;8.77;;;3.37;;
19599;SDS011;9947;57.722;12.012;2023-07-31T00:04:41;6.57;;;3.20;;
19599;SDS011;9947;57.722;12.012;2023-07-31T00:07:10;4.87;;;2.83;;
19599;SDS011;9947;57.722;12.012;2023-07-31T00:09:43;7.37;;;3.10;;
19599;SDS011;9947;57.722;12.012;2023-07-31T00:12:11;5.40;;;3.00;;
19599;SDS011;9947;57.722;12.012;2023-07-31T00:14:38;7.20;;;3.73;;
19599;SDS011;9947;57.722;12.012;2023-07-31T00:17:05;5.17;;;2.90;;
19599;SDS011;9947;57.722;12.012;2023-07-31T00:19:33;5.00;;;2.90;;
19599;SDS011;9947;57.722;12.012;2023-07-31T00:22:02;6.13;;;3.30;;
19599;SDS011;9947;57.722;12.012;2023-07-31T00:24:31;5.33;;;3.20;;
19599;SDS011;9947;57.722;12.012;2023-07-31T00:27:01;11.77;;;3.97;;
19599;SDS011;9947;57.722;12.012;2023-07-31T00:29:31;5.77;;;3.20;;
19599;SDS011;9947;57.722;12.012;2023-07-31T00:32:01;4.47;;;2.57;;
19599;SDS011;9947;57.722;12.012;2023-07-31T00:34:27;10.40;;;3.23;;
19599;SDS011;9947;57.722;12.012;2023-07-31T00:36:54;8.57;;;3.27;;
19599;SDS011;9947;57.722;12.012;2023-07-31T00:39:22;5.87;;;3.10;;
19599;SDS011;9947;57.722;12.012;2023-07-31T00:41:49;5.27;;;3.20;;
19599;SDS011;9947;57.722;12.012;2023-07-31T00:44:22;4.97;;;2.93;;
19599;SDS011;9947;57.722;12.012;2023-07-31T00:46:50;6.73;;;2.90;;
19599;SDS011;9947;57.722;12.012;2023-07-31T00:49:17;8.23;;;3.70;;
19599;SDS011;9947;57.722;12.012;2023-07-31T00:51:46;4.13;;;2.87;;
19599;SDS011;9947;57.722;12.012;2023-07-31T00:54:14;4.77;;;2.83;;
19599;SDS011;9947;57.722;12.012;2023-07-31T00:56:42;4.67;;;3.07;;
19599;SDS011;9947;57.722;12.012;2023-07-31T00:59:14;4.27;;;2.80;;
19599;SDS011;9947;57.722;12.012;2023-07-31T01:01:42;3.50;;;2.90;;
19599;SDS011;9947;57.722;12.012;2023-07-31T01:04:09;5.20;;;2.97;;
19599;SDS011;9947;57.722;12.012;2023-07-31T01:06:40;6.20;;;3.00;;
19599;SDS011;9947;57.722;12.012;2023-07-31T01:09:16;4.67;;;3.00;;
19599;SDS011;9947;57.722;12.012;2023-07-31T01:12:25;5.17;;;3.10;;
19599;SDS011;9947;57.722;12.012;2023-07-31T01:15:03;7.53;;;2.90;;
19599;SDS011;9947;57.722;12.012;2023-07-31T01:17:32;7.80;;;3.20;;
19599;SDS011;9947;57.722;12.012;2023-07-31T01:20:01;6.63;;;3.37;;
19599;SDS011;9947;57.722;12.012;2023-07-31T01:22:32;8.60;;;3.40;;
19599;SDS011;9947;57.722;12.012;2023-07-31T01:25:17;4.43;;;3.20;;
19599;SDS011;9947;57.722;12.012;2023-07-31T01:27:56;6.47;;;3.20;;
19599;SDS011;9947;57.722;12.012;2023-07-31T01:30:32;8.33;;;3.07;;
19599;SDS011;9947;57.722;12.012;2023-07-31T01:33:02;3.67;;;3.03;;
19599;SDS011;9947;57.722;12.012;2023-07-31T01:35:33;7.57;;;3.50;;
19599;SDS011;9947;57.722;12.012;2023-07-31T01:38:00;7.60;;;3.70;;
19599;SDS011;9947;57.722;12.012;2023-07-31T01:40:28;5.20;;;3.17;;
19599;SDS011;9947;57.722;12.012;2023-07-31T01:42:59;6.47;;;3.20;;
19599;SDS011;9947;57.722;12.012;2023-07-31T01:45:26;5.40;;;2.97;;
19599;SDS011;9947;57.722;12.012;2023-07-31T01:47:54;5.17;;;3.33;;
19599;SDS011;9947;57.722;12.012;2023-07-31T01:50:21;4.43;;;3.43;;
19599;SDS011;9947;57.722;12.012;2023-07-31T01:52:50;5.40;;;3.30;;
19599;SDS011;9947;57.722;12.012;2023-07-31T01:55:17;6.40;;;3.23;;
19599;SDS011;9947;57.722;12.012;2023-07-31T01:57:44;4.20;;;3.00;;
19599;SDS011;9947;57.722;12.012;2023-07-31T02:00:15;3.90;;;3.13;;
19599;SDS011;9947;57.722;12.012;2023-07-31T02:02:42;5.20;;;3.00;;
19599;SDS011;9947;57.722;12.012;2023-07-31T02:05:09;7.60;;;3.20;;
19599;SDS011;9947;57.722;12.012;2023-07-31T02:07:37;5.83;;;3.60;;
19599;SDS011;9947;57.722;12.012;2023-07-31T02:10:05;4.77;;;3.27;;
19599;SDS011;9947;57.722;12.012;2023-07-31T02:12:32;4.40;;;3.13;;
19599;SDS011;9947;57.722;12.012;2023-07-31T02:15:01;4.47;;;3.60;;
19599;SDS011;9947;57.722;12.012;2023-07-31T02:20:53;7.03;;;3.60;;
19599;SDS011;9947;57.722;12.012;2023-07-31T02:23:22;8.20;;;3.77;;
19599;SDS011;9947;57.722;12.012;2023-07-31T02:25:55;8.27;;;3.97;;
19599;SDS011;9947;57.722;12.012;2023-07-31T02:29:01;8.10;;;3.27;;
19599;SDS011;9947;57.722;12.012;2023-07-31T02:31:30;5.77;;;3.20;;
19599;SDS011;9947;57.722;12.012;2023-07-31T02:33:57;5.10;;;3.83;;
19599;SDS011;9947;57.722;12.012;2023-07-31T02:36:30;4.87;;;3.50;;
19599;SDS011;9947;57.722;12.012;2023-07-31T02:38:57;7.83;;;3.57;;
19599;SDS011;9947;57.722;12.012;2023-07-31T02:41:24;5.77;;;3.47;;
19599;SDS011;9947;57.722;12.012;2023-07-31T02:43:52;6.23;;;3.60;;
19599;SDS011;9947;57.722;12.012;2023-07-31T02:46:22;5.23;;;3.83;;
19599;SDS011;9947;57.722;12.012;2023-07-31T02:48:52;7.63;;;3.80;;
19599;SDS011;9947;57.722;12.012;2023-07-31T02:51:23;7.53;;;3.80;;
19599;SDS011;9947;57.722;12.012;2023-07-31T02:53:56;7.40;;;3.47;;
19599;SDS011;9947;57.722;12.012;2023-07-31T02:56:24;8.30;;;3.97;;
19599;SDS011;9947;57.722;12.012;2023-07-31T02:58:52;6.83;;;3.70;;
19599;SDS011;9947;57.722;12.012;2023-07-31T03:03:49;8.23;;;3.90;;
19599;SDS011;9947;57.722;12.012;2023-07-31T03:06:19;8.37;;;4.00;;
19599;SDS011;9947;57.722;12.012;2023-07-31T03:08:47;7.43;;;4.30;;
19599;SDS011;9947;57.722;12.012;2023-07-31T03:11:19;7.07;;;4.10;;
19599;SDS011;9947;57.722;12.012;2023-07-31T03:13:47;8.20;;;4.17;;
19599;SDS011;9947;57.722;12.012;2023-07-31T03:16:16;5.33;;;3.67;;
19599;SDS011;9947;57.722;12.012;2023-07-31T03:18:45;7.40;;;4.00;;
19599;SDS011;9947;57.722;12.012;2023-07-31T03:21:14;6.70;;;3.70;;
19599;SDS011;9947;57.722;12.012;2023-07-31T03:23:42;5.87;;;3.80;;
19599;SDS011;9947;57.722;12.012;2023-07-31T03:26:13;7.07;;;3.63;;
19599;SDS011;9947;57.722;12.012;2023-07-31T03:28:42;7.13;;;4.27;;
19599;SDS011;9947;57.722;12.012;2023-07-31T03:31:15;7.83;;;4.57;;
19599;SDS011;9947;57.722;12.012;2023-07-31T03:33:45;7.93;;;3.67;;
19599;SDS011;9947;57.722;12.012;2023-07-31T03:36:13;5.03;;;3.60;;
19599;SDS011;9947;57.722;12.012;2023-07-31T03:38:41;5.63;;;3.53;;
19599;SDS011;9947;57.722;12.012;2023-07-31T03:41:10;9.07;;;3.73;;
19599;SDS011;9947;57.722;12.012;2023-07-31T03:43:43;5.57;;;3.90;;
19599;SDS011;9947;57.722;12.012;2023-07-31T03:46:13;6.70;;;4.37;;
19599;SDS011;9947;57.722;12.012;2023-07-31T03:48:42;9.63;;;3.93;;
19599;SDS011;9947;57.722;12.012;2023-07-31T03:51:10;6.43;;;4.10;;
19599;SDS011;9947;57.722;12.012;2023-07-31T03:53:40;8.87;;;3.73;;
19599;SDS011;9947;57.722;12.012;2023-07-31T03:56:08;9.33;;;4.40;;
19599;SDS011;9947;57.722;12.012;2023-07-31T03:58:35;8.83;;;4.03;;
19599;SDS011;9947;57.722;12.012;2023-07-31T04:03:29;8.25;;;4.15;;
19599;SDS011;9947;57.722;12.012;2023-07-31T04:05:56;8.37;;;3.87;;
19599;SDS011;9947;57.722;12.012;2023-07-31T04:08:25;5.53;;;3.33;;
19599;SDS011;9947;57.722;12.012;2023-07-31T04:10:53;8.03;;;4.07;;
19599;SDS011;9947;57.722;12.012;2023-07-31T04:13:21;7.03;;;4.00;;
19599;SDS011;9947;57.722;12.012;2023-07-31T04:15:52;9.10;;;4.07;;
19599;SDS011;9947;57.722;12.012;2023-07-31T04:18:20;7.20;;;3.90;;
19599;SDS011;9947;57.722;12.012;2023-07-31T04:20:48;8.97;;;4.03;;
19599;SDS011;9947;57.722;12.012;2023-07-31T04:23:16;6.57;;;3.80;;
19599;SDS011;9947;57.722;12.012;2023-07-31T04:25:44;11.53;;;4.10;;
19599;SDS011;9947;57.722;12.012;2023-07-31T04:28:11;13.20;;;4.10;;
19599;SDS011;9947;57.722;12.012;2023-07-31T04:30:39;7.27;;;4.47;;
19599;SDS011;9947;57.722;12.012;2023-07-31T04:33:07;10.30;;;4.07;;
19599;SDS011;9947;57.722;12.012;2023-07-31T04:35:35;11.07;;;4.80;;
19599;SDS011;9947;57.722;12.012;2023-07-31T04:40:32;11.57;;;4.57;;
19599;SDS011;9947;57.722;12.012;2023-07-31T04:43:02;10.53;;;4.73;;
19599;SDS011;9947;57.722;12.012;2023-07-31T04:45:29;7.50;;;4.37;;
19599;SDS011;9947;57.722;12.012;2023-07-31T04:47:56;13.30;;;5.13;;
19599;SDS011;9947;57.722;12.012;2023-07-31T04:50:26;13.53;;;5.10;;
19599;SDS011;9947;57.722;12.012;2023-07-31T04:52:53;8.97;;;5.60;;
19599;SDS011;9947;57.722;12.012;2023-07-31T04:55:20;11.63;;;4.90;;
19599;SDS011;9947;57.722;12.012;2023-07-31T04:57:51;13.30;;;5.60;;
19599;SDS011;9947;57.722;12.012;2023-07-31T05:00:18;10.13;;;5.03;;
19599;SDS011;9947;57.722;12.012;2023-07-31T05:02:45;13.43;;;4.87;;
19599;SDS011;9947;57.722;12.012;2023-07-31T05:05:16;8.70;;;5.10;;
19599;SDS011;9947;57.722;12.012;2023-07-31T05:07:45;7.60;;;4.90;;
19599;SDS011;9947;57.722;12.012;2023-07-31T05:10:13;7.60;;;4.47;;
19599;SDS011;9947;57.722;12.012;2023-07-31T05:12:40;10.00;;;5.07;;
19599;SDS011;9947;57.722;12.012;2023-07-31T05:15:11;10.47;;;4.10;;
19599;SDS011;9947;57.722;12.012;2023-07-31T05:17:38;9.30;;;3.53;;
19599;SDS011;9947;57.722;12.012;2023-07-31T05:20:06;6.63;;;2.73;;
19599;SDS011;9947;57.722;12.012;2023-07-31T05:22:34;9.57;;;2.87;;
19599;SDS011;9947;57.722;12.012;2023-07-31T05:27:26;9.23;;;3.60;;
19599;SDS011;9947;57.722;12.012;2023-07-31T05:29:54;8.57;;;2.90;;
19599;SDS011;9947;57.722;12.012;2023-07-31T05:32:27;3.83;;;2.90;;
19599;SDS011;9947;57.722;12.012;2023-07-31T05:34:55;8.83;;;3.03;;
19599;SDS011;9947;57.722;12.012;2023-07-31T05:37:23;7.90;;;3.10;;
19599;SDS011;9947;57.722;12.012;2023-07-31T05:39:52;12.60;;;3.00;;
19599;SDS011;9947;57.722;12.012;2023-07-31T05:42:20;6.37;;;2.73;;
19599;SDS011;9947;57.722;12.012;2023-07-31T05:45:08;10.70;;;2.83;;
19599;SDS011;9947;57.722;12.012;2023-07-31T05:47:40;9.47;;;2.70;;
19599;SDS011;9947;57.722;12.012;2023-07-31T05:52:32;7.17;;;2.80;;
19599;SDS011;9947;57.722;12.012;2023-07-31T05:57:24;8.53;;;2.40;;
19599;SDS011;9947;57.722;12.012;2023-07-31T05:59:51;3.80;;;2.10;;
19599;SDS011;9947;57.722;12.012;2023-07-31T06:02:18;5.80;;;2.00;;
19599;SDS011;9947;57.722;12.012;2023-07-31T06:04:46;9.95;;;2.03;;
19599;SDS011;9947;57.722;12.012;2023-07-31T06:07:15;7.32;;;2.13;;
19599;SDS011;9947;57.722;12.012;2023-07-31T06:09:45;5.30;;;1.77;;
19599;SDS011;9947;57.722;12.012;2023-07-31T06:12:14;4.72;;;1.92;;
19599;SDS011;9947;57.722;12.012;2023-07-31T06:14:44;8.23;;;2.30;;
19599;SDS011;9947;57.722;12.012;2023-07-31T06:17:12;7.60;;;1.90;;
19599;SDS011;9947;57.722;12.012;2023-07-31T06:19:39;3.88;;;1.77;;
19599;SDS011;9947;57.722;12.012;2023-07-31T06:22:09;9.98;;;2.55;;
19599;SDS011;9947;57.722;12.012;2023-07-31T06:24:36;3.63;;;1.80;;
19599;SDS011;9947;57.722;12.012;2023-07-31T06:29:28;8.23;;;2.10;;
19599;SDS011;9947;57.722;12.012;2023-07-31T06:31:56;12.47;;;2.93;;
19599;SDS011;9947;57.722;12.012;2023-07-31T06:34:24;8.30;;;2.20;;
19599;SDS011;9947;57.722;12.012;2023-07-31T06:36:51;5.93;;;2.30;;
19599;SDS011;9947;57.722;12.012;2023-07-31T06:39:21;3.27;;;2.07;;
19599;SDS011;9947;57.722;12.012;2023-07-31T06:41:48;6.47;;;2.63;;
19599;SDS011;9947;57.722;12.012;2023-07-31T06:44:15;6.80;;;2.20;;
19599;SDS011;9947;57.722;12.012;2023-07-31T06:46:43;9.57;;;2.30;;
19599;SDS011;9947;57.722;12.012;2023-07-31T06:49:10;8.60;;;2.73;;
19599;SDS011;9947;57.722;12.012;2023-07-31T06:51:37;5.67;;;2.63;;
19599;SDS011;9947;57.722;12.012;2023-07-31T06:56:32;4.17;;;2.40;;
19599;SDS011;9947;57.722;12.012;2023-07-31T06:59:02;7.00;;;2.70;;
19599;SDS011;9947;57.722;12.012;2023-07-31T07:01:31;6.93;;;2.43;;
19599;SDS011;9947;57.722;12.012;2023-07-31T07:03:58;11.17;;;2.63;;
19599;SDS011;9947;57.722;12.012;2023-07-31T07:06:25;6.63;;;2.93;;
19599;SDS011;9947;57.722;12.012;2023-07-31T07:08:52;6.57;;;2.60;;
19599;SDS011;9947;57.722;12.012;2023-07-31T07:11:20;7.07;;;2.83;;
19599;SDS011;9947;57.722;12.012;2023-07-31T07:13:48;7.93;;;3.30;;
19599;SDS011;9947;57.722;12.012;2023-07-31T07:16:16;5.20;;;2.80;;
19599;SDS011;9947;57.722;12.012;2023-07-31T07:18:44;6.57;;;2.70;;
19599;SDS011;9947;57.722;12.012;2023-07-31T07:21:11;7.67;;;3.13;;
19599;SDS011;9947;57.722;12.012;2023-07-31T07:23:41;8.93;;;3.20;;
19599;SDS011;9947;57.722;12.012;2023-07-31T07:28:37;8.43;;;2.97;;
19599;SDS011;9947;57.722;12.012;2023-07-31T07:31:09;6.37;;;3.30;;
19599;SDS011;9947;57.722;12.012;2023-07-31T07:33:37;11.50;;;3.40;;
19599;SDS011;9947;57.722;12.012;2023-07-31T07:36:07;8.57;;;3.03;;
19599;SDS011;9947;57.722;12.012;2023-07-31T07:38:35;14.17;;;3.30;;
19599;SDS011;9947;57.722;12.012;2023-07-31T07:41:02;8.23;;;3.40;;
19599;SDS011;9947;57.722;12.012;2023-07-31T07:43:30;8.60;;;3.43;;
19599;SDS011;9947;57.722;12.012;2023-07-31T07:48:25;11.40;;;3.33;;
19599;SDS011;9947;57.722;12.012;2023-07-31T07:50:52;7.83;;;3.13;;
19599;SDS011;9947;57.722;12.012;2023-07-31T07:53:21;10.67;;;3.37;;
19599;SDS011;9947;57.722;12.012;2023-07-31T07:55:48;8.37;;;3.33;;
19599;SDS011;9947;57.722;12.012;2023-07-31T07:58:16;12.13;;;3.33;;
19599;SDS011;9947;57.722;12.012;2023-07-31T08:00:48;9.47;;;3.60;;
19599;SDS011;9947;57.722;12.012;2023-07-31T08:03:17;7.93;;;3.40;;
19599;SDS011;9947;57.722;12.012;2023-07-31T08:05:46;9.77;;;4.27;;
19599;SDS011;9947;57.722;12.012;2023-07-31T08:08:14;7.73;;;3.30;;
19599;SDS011;9947;57.722;12.012;2023-07-31T08:10:42;6.23;;;2.77;;
19599;SDS011;9947;57.722;12.012;2023-07-31T08:15:40;6.33;;;2.47;;
19599;SDS011;9947;57.722;12.012;2023-07-31T08:20:37;10.00;;;2.87;;
19599;SDS011;9947;57.722;12.012;2023-07-31T08:25:33;6.03;;;2.87;;
19599;SDS011;9947;57.722;12.012;2023-07-31T08:30:31;7.63;;;2.40;;
19599;SDS011;9947;57.722;12.012;2023-07-31T08:35:24;5.97;;;2.20;;
19599;SDS011;9947;57.722;12.012;2023-07-31T08:37:53;5.47;;;2.10;;
19599;SDS011;9947;57.722;12.012;2023-07-31T08:40:22;3.03;;;1.73;;
19599;SDS011;9947;57.722;12.012;2023-07-31T08:42:54;4.20;;;1.80;;
19599;SDS011;9947;57.722;12.012;2023-07-31T08:45:27;3.33;;;1.90;;
19599;SDS011;9947;57.722;12.012;2023-07-31T08:47:55;2.90;;;1.70;;
19599;SDS011;9947;57.722;12.012;2023-07-31T08:52:50;3.03;;;1.60;;
19599;SDS011;9947;57.722;12.012;2023-07-31T08:55:20;3.00;;;1.70;;
19599;SDS011;9947;57.722;12.012;2023-07-31T08:57:52;4.87;;;1.77;;
19599;SDS011;9947;57.722;12.012;2023-07-31T09:00:19;2.90;;;1.47;;
19599;SDS011;9947;57.722;12.012;2023-07-31T09:02:50;2.80;;;1.60;;
19599;SDS011;9947;57.722;12.012;2023-07-31T09:05:26;4.90;;;1.70;;
19599;SDS011;9947;57.722;12.012;2023-07-31T09:07:53;2.47;;;1.53;;
19599;SDS011;9947;57.722;12.012;2023-07-31T09:10:22;2.70;;;1.67;;
19599;SDS011;9947;57.722;12.012;2023-07-31T09:12:51;2.50;;;1.57;;
19599;SDS011;9947;57.722;12.012;2023-07-31T09:15:19;1.60;;;1.47;;
19599;SDS011;9947;57.722;12.012;2023-07-31T09:17:46;3.90;;;1.90;;
19599;SDS011;9947;57.722;12.012;2023-07-31T09:20:22;4.83;;;1.80;;
19599;SDS011;9947;57.722;12.012;2023-07-31T09:22:50;5.33;;;2.00;;
19599;SDS011;9947;57.722;12.012;2023-07-31T09:25:20;5.37;;;1.70;;
19599;SDS011;9947;57.722;12.012;2023-07-31T09:27:50;3.40;;;1.70;;
19599;SDS011;9947;57.722;12.012;2023-07-31T09:30:21;4.07;;;1.90;;
19599;SDS011;9947;57.722;12.012;2023-07-31T09:32:48;2.87;;;1.50;;
19599;SDS011;9947;57.722;12.012;2023-07-31T09:35:20;2.60;;;1.70;;
19599;SDS011;9947;57.722;12.012;2023-07-31T09:37:57;3.60;;;1.60;;
19599;SDS011;9947;57.722;12.012;2023-07-31T09:40:25;3.20;;;1.50;;
19599;SDS011;9947;57.722;12.012;2023-07-31T09:47:57;2.93;;;1.30;;
19599;SDS011;9947;57.722;12.012;2023-07-31T09:50:24;3.70;;;1.27;;
19599;SDS011;9947;57.722;12.012;2023-07-31T09:52:52;4.27;;;1.43;;
19599;SDS011;9947;57.722;12.012;2023-07-31T09:55:21;1.40;;;1.30;;
19599;SDS011;9947;57.722;12.012;2023-07-31T09:57:49;3.33;;;1.30;;
19599;SDS011;9947;57.722;12.012;2023-07-31T10:00:18;1.83;;;1.33;;
19599;SDS011;9947;57.722;12.012;2023-07-31T10:02:50;2.33;;;1.27;;
19599;SDS011;9947;57.722;12.012;2023-07-31T10:05:22;1.80;;;1.30;;
19599;SDS011;9947;57.722;12.012;2023-07-31T10:07:51;2.83;;;1.17;;
19599;SDS011;9947;57.722;12.012;2023-07-31T10:10:21;2.23;;;1.57;;
19599;SDS011;9947;57.722;12.012;2023-07-31T10:12:52;1.40;;;1.00;;
19599;SDS011;9947;57.722;12.012;2023-07-31T10:15:20;5.40;;;1.83;;
19599;SDS011;9947;57.722;12.012;2023-07-31T10:17:47;2.60;;;1.20;;
19599;SDS011;9947;57.722;12.012;2023-07-31T10:20:19;3.37;;;1.20;;
19599;SDS011;9947;57.722;12.012;2023-07-31T10:22:49;1.93;;;1.30;;
19599;SDS011;9947;57.722;12.012;2023-07-31T10:25:18;2.90;;;1.30;;
19599;SDS011;9947;57.722;12.012;2023-07-31T10:27:46;2.63;;;1.30;;
19599;SDS011;9947;57.722;12.012;2023-07-31T10:30:14;3.00;;;1.40;;
19599;SDS011;9947;57.722;12.012;2023-07-31T10:32:44;2.37;;;1.47;;
19599;SDS011;9947;57.722;12.012;2023-07-31T10:35:12;3.07;;;1.33;;
19599;SDS011;9947;57.722;12.012;2023-07-31T10:37:42;4.83;;;1.40;;
19599;SDS011;9947;57.722;12.012;2023-07-31T10:40:16;3.10;;;1.20;;
19599;SDS011;9947;57.722;12.012;2023-07-31T10:42:46;2.40;;;1.40;;
19599;SDS011;9947;57.722;12.012;2023-07-31T10:45:25;3.33;;;1.27;;
19599;SDS011;9947;57.722;12.012;2023-07-31T10:48:00;3.58;;;1.30;;
19599;SDS011;9947;57.722;12.012;2023-07-31T10:50:28;2.00;;;1.03;;
19599;SDS011;9947;57.722;12.012;2023-07-31T10:52:58;2.50;;;1.20;;
19599;SDS011;9947;57.722;12.012;2023-07-31T10:55:31;2.38;;;1.23;;
19599;SDS011;9947;57.722;12.012;2023-07-31T10:58:05;1.63;;;1.00;;
19599;SDS011;9947;57.722;12.012;2023-07-31T11:00:36;2.33;;;1.10;;
19599;SDS011;9947;57.722;12.012;2023-07-31T11:03:08;2.55;;;1.20;;
19599;SDS011;9947;57.722;12.012;2023-07-31T11:05:47;2.42;;;1.17;;
19599;SDS011;9947;57.722;12.012;2023-07-31T11:08:16;3.45;;;1.25;;
19599;SDS011;9947;57.722;12.012;2023-07-31T11:10:46;1.73;;;1.05;;
19599;SDS011;9947;57.722;12.012;2023-07-31T11:13:14;2.95;;;1.10;;
19599;SDS011;9947;57.722;12.012;2023-07-31T11:15:42;1.80;;;1.17;;
19599;SDS011;9947;57.722;12.012;2023-07-31T11:18:10;1.20;;;1.10;;
19599;SDS011;9947;57.722;12.012;2023-07-31T11:20:42;2.08;;;1.02;;
19599;SDS011;9947;57.722;12.012;2023-07-31T11:23:11;3.20;;;1.23;;
19599;SDS011;9947;57.722;12.012;2023-07-31T11:25:40;1.50;;;0.90;;
19599;SDS011;9947;57.722;12.012;2023-07-31T11:28:10;2.97;;;1.20;;
19599;SDS011;9947;57.722;12.012;2023-07-31T11:30:37;2.17;;;1.35;;
19599;SDS011;9947;57.722;12.012;2023-07-31T11:35:36;1.20;;;1.10;;
19599;SDS011;9947;57.722;12.012;2023-07-31T11:38:10;3.08;;;1.20;;
19599;SDS011;9947;57.722;12.012;2023-07-31T11:40:40;3.35;;;1.23;;
19599;SDS011;9947;57.722;12.012;2023-07-31T11:45:37;3.95;;;1.35;;
19599;SDS011;9947;57.722;12.012;2023-07-31T11:50:36;4.07;;;1.50;;
19599;SDS011;9947;57.722;12.012;2023-07-31T11:55:29;1.27;;;1.00;;
19599;SDS011;9947;57.722;12.012;2023-07-31T11:57:57;1.77;;;1.10;;
19599;SDS011;9947;57.722;12.012;2023-07-31T12:00:25;3.63;;;1.20;;
19599;SDS011;9947;57.722;12.012;2023-07-31T12:02:55;5.15;;;1.58;;
19599;SDS011;9947;57.722;12.012;2023-07-31T12:05:23;2.28;;;0.90;;
19599;SDS011;9947;57.722;12.012;2023-07-31T12:07:50;1.73;;;1.05;;
19599;SDS011;9947;57.722;12.012;2023-07-31T12:10:25;1.38;;;0.93;;
19599;SDS011;9947;57.722;12.012;2023-07-31T12:13:00;3.47;;;1.50;;
19599;SDS011;9947;57.722;12.012;2023-07-31T12:15:34;2.63;;;1.35;;
19599;SDS011;9947;57.722;12.012;2023-07-31T12:20:34;3.05;;;1.25;;
19599;SDS011;9947;57.722;12.012;2023-07-31T12:25:30;7.50;;;1.40;;
19599;SDS011;9947;57.722;12.012;2023-07-31T12:28:03;5.20;;;1.23;;
19599;SDS011;9947;57.722;12.012;2023-07-31T12:30:33;4.13;;;1.30;;
19599;SDS011;9947;57.722;12.012;2023-07-31T12:35:30;2.63;;;1.10;;
19599;SDS011;9947;57.722;12.012;2023-07-31T12:40:36;4.05;;;1.25;;
19599;SDS011;9947;57.722;12.012;2023-07-31T12:45:31;4.78;;;1.10;;
19599;SDS011;9947;57.722;12.012;2023-07-31T12:48:00;2.70;;;1.20;;
19599;SDS011;9947;57.722;12.012;2023-07-31T12:50:28;4.03;;;1.23;;
19599;SDS011;9947;57.722;12.012;2023-07-31T12:52:57;2.63;;;1.30;;
19599;SDS011;9947;57.722;12.012;2023-07-31T12:55:25;2.83;;;1.07;;
19599;SDS011;9947;57.722;12.012;2023-07-31T12:57:52;3.63;;;1.10;;
19599;SDS011;9947;57.722;12.012;2023-07-31T13:00:19;3.20;;;1.10;;
19599;SDS011;9947;57.722;12.012;2023-07-31T13:02:46;2.70;;;1.10;;
19599;SDS011;9947;57.722;12.012;2023-07-31T13:05:15;6.93;;;1.40;;
19599;SDS011;9947;57.722;12.012;2023-07-31T13:07:42;5.57;;;1.40;;
19599;SDS011;9947;57.722;12.012;2023-07-31T13:10:10;3.45;;;1.30;;
19599;SDS011;9947;57.722;12.012;2023-07-31T13:12:39;5.22;;;1.40;;
19599;SDS011;9947;57.722;12.012;2023-07-31T13:17:31;4.25;;;1.50;;
19599;SDS011;9947;57.722;12.012;2023-07-31T13:20:01;3.42;;;1.42;;
19599;SDS011;9947;57.722;12.012;2023-07-31T13:22:29;3.75;;;1.38;;
19599;SDS011;9947;57.722;12.012;2023-07-31T13:24:56;3.97;;;1.20;;
19599;SDS011;9947;57.722;12.012;2023-07-31T13:27:25;6.05;;;1.80;;
19599;SDS011;9947;57.722;12.012;2023-07-31T13:29:52;7.18;;;1.88;;
19599;SDS011;9947;57.722;12.012;2023-07-31T13:32:19;3.20;;;1.30;;
19599;SDS011;9947;57.722;12.012;2023-07-31T13:34:48;3.78;;;1.60;;
19599;SDS011;9947;57.722;12.012;2023-07-31T13:37:15;5.80;;;1.40;;
19599;SDS011;9947;57.722;12.012;2023-07-31T13:39:43;4.40;;;1.20;;
19599;SDS011;9947;57.722;12.012;2023-07-31T13:42:10;4.07;;;1.20;;
19599;SDS011;9947;57.722;12.012;2023-07-31T13:44:39;5.20;;;1.30;;
19599;SDS011;9947;57.722;12.012;2023-07-31T13:49:33;5.25;;;1.60;;
19599;SDS011;9947;57.722;12.012;2023-07-31T13:52:02;5.83;;;2.10;;
19599;SDS011;9947;57.722;12.012;2023-07-31T13:54:29;4.65;;;1.55;;
19599;SDS011;9947;57.722;12.012;2023-07-31T13:56:57;4.73;;;1.30;;
19599;SDS011;9947;57.722;12.012;2023-07-31T13:59:24;4.97;;;1.70;;
19599;SDS011;9947;57.722;12.012;2023-07-31T14:01:53;3.73;;;1.70;;
19599;SDS011;9947;57.722;12.012;2023-07-31T14:04:21;3.80;;;1.70;;
19599;SDS011;9947;57.722;12.012;2023-07-31T14:06:48;6.93;;;1.87;;
19599;SDS011;9947;57.722;12.012;2023-07-31T14:09:16;6.23;;;1.90;;
19599;SDS011;9947;57.722;12.012;2023-07-31T14:11:44;6.10;;;1.83;;
19599;SDS011;9947;57.722;12.012;2023-07-31T14:14:12;5.73;;;1.70;;
19599;SDS011;9947;57.722;12.012;2023-07-31T14:16:41;6.70;;;1.77;;
19599;SDS011;9947;57.722;12.012;2023-07-31T14:19:11;6.27;;;1.87;;
19599;SDS011;9947;57.722;12.012;2023-07-31T14:21:41;4.10;;;1.73;;
19599;SDS011;9947;57.722;12.012;2023-07-31T14:24:08;7.23;;;2.40;;
19599;SDS011;9947;57.722;12.012;2023-07-31T14:26:35;4.40;;;1.67;;
19599;SDS011;9947;57.722;12.012;2023-07-31T14:31:27;8.23;;;2.07;;
19599;SDS011;9947;57.722;12.012;2023-07-31T14:33:55;7.60;;;1.83;;
19599;SDS011;9947;57.722;12.012;2023-07-31T14:36:24;6.20;;;2.00;;
19599;SDS011;9947;57.722;12.012;2023-07-31T14:38:52;4.50;;;1.70;;
19599;SDS011;9947;57.722;12.012;2023-07-31T14:41:19;5.67;;;2.10;;
19599;SDS011;9947;57.722;12.012;2023-07-31T14:43:47;6.93;;;2.40;;
19599;SDS011;9947;57.722;12.012;2023-07-31T14:46:14;5.33;;;2.13;;
19599;SDS011;9947;57.722;12.012;2023-07-31T14:48:42;5.77;;;2.40;;
19599;SDS011;9947;57.722;12.012;2023-07-31T14:51:09;6.33;;;2.20;;
19599;SDS011;9947;57.722;12.012;2023-07-31T14:53:37;4.77;;;2.30;;
19599;SDS011;9947;57.722;12.012;2023-07-31T14:56:04;6.27;;;2.83;;
19599;SDS011;9947;57.722;12.012;2023-07-31T14:58:33;4.87;;;2.20;;
19599;SDS011;9947;57.722;12.012;2023-07-31T15:01:00;7.37;;;2.23;;
19599;SDS011;9947;57.722;12.012;2023-07-31T15:03:28;5.00;;;1.73;;
19599;SDS011;9947;57.722;12.012;2023-07-31T15:05:55;8.13;;;2.37;;
19599;SDS011;9947;57.722;12.012;2023-07-31T15:08:22;7.43;;;2.73;;
19599;SDS011;9947;57.722;12.012;2023-07-31T15:10:54;4.47;;;2.73;;
19599;SDS011;9947;57.722;12.012;2023-07-31T15:13:26;5.83;;;2.33;;
19599;SDS011;9947;57.722;12.012;2023-07-31T15:15:53;6.13;;;2.30;;
19599;SDS011;9947;57.722;12.012;2023-07-31T15:18:21;5.80;;;2.07;;
19599;SDS011;9947;57.722;12.012;2023-07-31T15:20:48;7.40;;;2.43;;
19599;SDS011;9947;57.722;12.012;2023-07-31T15:23:16;6.13;;;2.33;;
19599;SDS011;9947;57.722;12.012;2023-07-31T15:25:48;9.03;;;2.20;;
19599;SDS011;9947;57.722;12.012;2023-07-31T15:28:20;6.57;;;2.20;;
19599;SDS011;9947;57.722;12.012;2023-07-31T15:30:47;7.10;;;2.00;;
19599;SDS011;9947;57.722;12.012;2023-07-31T15:33:14;6.83;;;2.33;;
19599;SDS011;9947;57.722;12.012;2023-07-31T15:35:43;8.07;;;2.30;;
19599;SDS011;9947;57.722;12.012;2023-07-31T15:38:11;4.90;;;2.43;;
19599;SDS011;9947;57.722;12.012;2023-07-31T15:40:39;5.07;;;2.20;;
19599;SDS011;9947;57.722;12.012;2023-07-31T15:45:33;5.30;;;2.30;;
19599;SDS011;9947;57.722;12.012;2023-07-31T15:48:00;9.03;;;3.23;;
19599;SDS011;9947;57.722;12.012;2023-07-31T15:50:26;6.30;;;2.13;;
19599;SDS011;9947;57.722;12.012;2023-07-31T15:52:54;5.73;;;2.47;;
19599;SDS011;9947;57.722;12.012;2023-07-31T15:55:25;6.20;;;2.60;;
19599;SDS011;9947;57.722;12.012;2023-07-31T15:57:53;6.77;;;2.70;;
19599;SDS011;9947;57.722;12.012;2023-07-31T16:00:20;7.00;;;2.70;;
19599;SDS011;9947;57.722;12.012;2023-07-31T16:02:48;7.00;;;3.07;;
19599;SDS011;9947;57.722;12.012;2023-07-31T16:05:17;4.73;;;2.30;;
19599;SDS011;9947;57.722;12.012;2023-07-31T16:07:45;7.83;;;2.83;;
19599;SDS011;9947;57.722;12.012;2023-07-31T16:10:12;5.87;;;2.23;;
19599;SDS011;9947;57.722;12.012;2023-07-31T16:12:39;9.60;;;2.60;;
19599;SDS011;9947;57.722;12.012;2023-07-31T16:17:36;9.93;;;2.70;;
19599;SDS011;9947;57.722;12.012;2023-07-31T16:22:33;5.77;;;2.00;;